KGWO/GWO METAR and TAF weather

Enter ICAO airport designator
Station Type Date Time Source
KGWO METAR 2021/05/11 16:53 UTC NOAA

KGWO 111653Z AUTO 08005KT 10SM OVC007 18/15 A3011 RMK AO2 SLP194 T01780150


Station Type Date Time Source
KGWO Decoded METAR 2021/05/11 16:53 UTC NOAA

GREENWOOD-LEFLORE AIRPORT, MS, United States (KGWO) 33-30N 090-05W 44M
May 11, 2021 - 12:53 PM EDT / 2021.05.11 1653 UTC
Wind: from the E (080 degrees) at 6 MPH (5 KT):0
Visibility: 10 mile(s):0
Sky conditions: overcast
Temperature: 64.0 F (17.8 C)
Dew Point: 59.0 F (15.0 C)
Relative Humidity: 83%
Pressure (altimeter): 30.11 in. Hg (1019 hPa)
ob: KGWO 111653Z AUTO 08005KT 10SM OVC007 18/15 A3011 RMK AO2 SLP194 T01780150
cycle: 17

Station Type Date Time Source
KGWO TAF 2021/05/11 18:21 UTC NOAA

TAF KGWO 111720Z 1118/1218 07007KT P6SM VCSH OVC007
FM112300 05007KT 4SM SHRA VCTS OVC007CB
FM120300 04008KT 4SM SHRA OVC007
FM120700 04010KT P6SM OVC007

Example: see airport list